sensor_id;sensor_type;location;lat;lon;timestamp;P1;durP1;ratioP1;P2;durP2;ratioP2
61358;SDS011;47228;46.762;23.598;2023-06-22T00:01:23;33.60;;;22.70;;
61358;SDS011;47228;46.762;23.598;2023-06-22T00:03:51;31.10;;;23.40;;
61358;SDS011;47228;46.762;23.598;2023-06-22T00:06:19;34.80;;;23.90;;
61358;SDS011;47228;46.762;23.598;2023-06-22T00:08:48;38.90;;;24.00;;
61358;SDS011;47228;46.762;23.598;2023-06-22T00:11:15;41.10;;;25.20;;
61358;SDS011;47228;46.762;23.598;2023-06-22T00:13:44;36.70;;;24.40;;
61358;SDS011;47228;46.762;23.598;2023-06-22T00:16:12;38.40;;;24.60;;
61358;SDS011;47228;46.762;23.598;2023-06-22T00:18:40;35.90;;;24.70;;
61358;SDS011;47228;46.762;23.598;2023-06-22T00:21:14;36.70;;;24.10;;
61358;SDS011;47228;46.762;23.598;2023-06-22T00:23:42;35.10;;;24.80;;
61358;SDS011;47228;46.762;23.598;2023-06-22T00:26:10;36.00;;;24.30;;
61358;SDS011;47228;46.762;23.598;2023-06-22T00:28:39;35.60;;;24.20;;
61358;SDS011;47228;46.762;23.598;2023-06-22T00:31:07;39.50;;;25.20;;
61358;SDS011;47228;46.762;23.598;2023-06-22T00:33:35;33.70;;;24.80;;
61358;SDS011;47228;46.762;23.598;2023-06-22T00:36:03;35.40;;;24.20;;
61358;SDS011;47228;46.762;23.598;2023-06-22T00:38:31;35.60;;;24.90;;
61358;SDS011;47228;46.762;23.598;2023-06-22T00:40:59;39.20;;;25.30;;
61358;SDS011;47228;46.762;23.598;2023-06-22T00:43:27;36.00;;;25.30;;
61358;SDS011;47228;46.762;23.598;2023-06-22T00:45:55;35.50;;;25.40;;
61358;SDS011;47228;46.762;23.598;2023-06-22T00:48:24;36.70;;;25.50;;
61358;SDS011;47228;46.762;23.598;2023-06-22T00:50:53;34.50;;;24.80;;
61358;SDS011;47228;46.762;23.598;2023-06-22T00:53:23;37.80;;;24.60;;
61358;SDS011;47228;46.762;23.598;2023-06-22T00:55:51;32.30;;;24.20;;
61358;SDS011;47228;46.762;23.598;2023-06-22T00:58:19;36.20;;;24.70;;
61358;SDS011;47228;46.762;23.598;2023-06-22T01:00:52;34.80;;;24.60;;
61358;SDS011;47228;46.762;23.598;2023-06-22T01:03:20;37.40;;;25.50;;
61358;SDS011;47228;46.762;23.598;2023-06-22T01:05:48;36.50;;;24.90;;
61358;SDS011;47228;46.762;23.598;2023-06-22T01:08:31;38.20;;;25.40;;
61358;SDS011;47228;46.762;23.598;2023-06-22T01:11:14;39.40;;;26.70;;
61358;SDS011;47228;46.762;23.598;2023-06-22T01:16:27;39.40;;;27.70;;
61358;SDS011;47228;46.762;23.598;2023-06-22T01:18:59;36.50;;;26.20;;
61358;SDS011;47228;46.762;23.598;2023-06-22T01:21:29;42.70;;;25.90;;
61358;SDS011;47228;46.762;23.598;2023-06-22T01:30:04;42.00;;;28.10;;
61358;SDS011;47228;46.762;23.598;2023-06-22T01:32:34;36.80;;;25.70;;
61358;SDS011;47228;46.762;23.598;2023-06-22T01:35:05;41.50;;;26.50;;
61358;SDS011;47228;46.762;23.598;2023-06-22T01:37:35;42.70;;;26.50;;
61358;SDS011;47228;46.762;23.598;2023-06-22T01:40:04;44.80;;;27.90;;
61358;SDS011;47228;46.762;23.598;2023-06-22T01:42:36;40.80;;;26.80;;
61358;SDS011;47228;46.762;23.598;2023-06-22T01:45:06;40.50;;;27.50;;
61358;SDS011;47228;46.762;23.598;2023-06-22T01:47:34;41.60;;;26.00;;
61358;SDS011;47228;46.762;23.598;2023-06-22T01:50:03;34.40;;;25.30;;
61358;SDS011;47228;46.762;23.598;2023-06-22T01:52:32;38.80;;;26.30;;
61358;SDS011;47228;46.762;23.598;2023-06-22T01:55:01;40.10;;;27.20;;
61358;SDS011;47228;46.762;23.598;2023-06-22T01:57:29;36.90;;;26.60;;
61358;SDS011;47228;46.762;23.598;2023-06-22T02:02:33;36.90;;;27.30;;
61358;SDS011;47228;46.762;23.598;2023-06-22T02:05:09;39.50;;;27.50;;
61358;SDS011;47228;46.762;23.598;2023-06-22T02:07:41;36.80;;;27.20;;
61358;SDS011;47228;46.762;23.598;2023-06-22T02:10:14;37.80;;;27.20;;
61358;SDS011;47228;46.762;23.598;2023-06-22T02:12:45;38.70;;;27.20;;
61358;SDS011;47228;46.762;23.598;2023-06-22T02:15:14;38.50;;;27.10;;
61358;SDS011;47228;46.762;23.598;2023-06-22T02:17:43;35.80;;;26.20;;
61358;SDS011;47228;46.762;23.598;2023-06-22T02:20:13;39.80;;;27.10;;
61358;SDS011;47228;46.762;23.598;2023-06-22T02:22:42;43.00;;;28.50;;
61358;SDS011;47228;46.762;23.598;2023-06-22T02:25:10;42.00;;;28.00;;
61358;SDS011;47228;46.762;23.598;2023-06-22T02:27:38;43.70;;;28.70;;
61358;SDS011;47228;46.762;23.598;2023-06-22T02:30:09;40.30;;;27.50;;
61358;SDS011;47228;46.762;23.598;2023-06-22T02:32:37;37.90;;;28.30;;
61358;SDS011;47228;46.762;23.598;2023-06-22T02:35:09;41.20;;;27.70;;
61358;SDS011;47228;46.762;23.598;2023-06-22T02:37:38;39.20;;;28.60;;
61358;SDS011;47228;46.762;23.598;2023-06-22T02:40:10;42.80;;;28.90;;
61358;SDS011;47228;46.762;23.598;2023-06-22T02:42:39;44.50;;;29.30;;
61358;SDS011;47228;46.762;23.598;2023-06-22T02:45:07;39.30;;;28.90;;
61358;SDS011;47228;46.762;23.598;2023-06-22T02:47:35;39.60;;;27.20;;
61358;SDS011;47228;46.762;23.598;2023-06-22T02:50:03;41.80;;;27.70;;
61358;SDS011;47228;46.762;23.598;2023-06-22T02:52:32;38.00;;;26.70;;
61358;SDS011;47228;46.762;23.598;2023-06-22T02:55:00;38.80;;;27.30;;
61358;SDS011;47228;46.762;23.598;2023-06-22T02:57:27;37.90;;;26.40;;
61358;SDS011;47228;46.762;23.598;2023-06-22T02:59:55;37.80;;;25.50;;
61358;SDS011;47228;46.762;23.598;2023-06-22T03:02:25;37.90;;;25.20;;
61358;SDS011;47228;46.762;23.598;2023-06-22T03:04:54;38.20;;;26.40;;
61358;SDS011;47228;46.762;23.598;2023-06-22T03:07:21;36.10;;;25.70;;
61358;SDS011;47228;46.762;23.598;2023-06-22T03:09:49;39.10;;;26.60;;
61358;SDS011;47228;46.762;23.598;2023-06-22T03:12:17;35.60;;;25.30;;
61358;SDS011;47228;46.762;23.598;2023-06-22T03:14:45;34.10;;;25.00;;
61358;SDS011;47228;46.762;23.598;2023-06-22T03:17:13;35.90;;;26.20;;
61358;SDS011;47228;46.762;23.598;2023-06-22T03:19:41;39.10;;;26.00;;
61358;SDS011;47228;46.762;23.598;2023-06-22T03:22:09;36.80;;;25.40;;
61358;SDS011;47228;46.762;23.598;2023-06-22T03:24:40;36.20;;;25.60;;
61358;SDS011;47228;46.762;23.598;2023-06-22T03:27:08;37.70;;;26.50;;
61358;SDS011;47228;46.762;23.598;2023-06-22T03:29:36;35.80;;;25.50;;
61358;SDS011;47228;46.762;23.598;2023-06-22T03:32:04;37.20;;;25.50;;
61358;SDS011;47228;46.762;23.598;2023-06-22T03:34:33;37.00;;;25.70;;
61358;SDS011;47228;46.762;23.598;2023-06-22T03:37:03;35.40;;;25.70;;
61358;SDS011;47228;46.762;23.598;2023-06-22T03:39:31;38.90;;;26.90;;
61358;SDS011;47228;46.762;23.598;2023-06-22T03:41:59;38.70;;;27.50;;
61358;SDS011;47228;46.762;23.598;2023-06-22T03:44:27;38.80;;;27.50;;
61358;SDS011;47228;46.762;23.598;2023-06-22T03:46:55;39.40;;;27.10;;
61358;SDS011;47228;46.762;23.598;2023-06-22T03:49:23;41.60;;;28.10;;
61358;SDS011;47228;46.762;23.598;2023-06-22T03:51:51;38.50;;;27.90;;
61358;SDS011;47228;46.762;23.598;2023-06-22T03:54:19;43.70;;;28.00;;
61358;SDS011;47228;46.762;23.598;2023-06-22T03:56:47;42.70;;;28.10;;
61358;SDS011;47228;46.762;23.598;2023-06-22T03:59:15;40.90;;;29.00;;
61358;SDS011;47228;46.762;23.598;2023-06-22T04:01:43;39.40;;;29.70;;
61358;SDS011;47228;46.762;23.598;2023-06-22T04:04:12;40.40;;;27.90;;
61358;SDS011;47228;46.762;23.598;2023-06-22T04:06:40;40.60;;;28.60;;
61358;SDS011;47228;46.762;23.598;2023-06-22T04:09:08;41.10;;;28.60;;
61358;SDS011;47228;46.762;23.598;2023-06-22T04:11:36;40.50;;;28.30;;
61358;SDS011;47228;46.762;23.598;2023-06-22T04:14:04;41.00;;;27.90;;
61358;SDS011;47228;46.762;23.598;2023-06-22T04:16:32;36.60;;;26.10;;
61358;SDS011;47228;46.762;23.598;2023-06-22T04:19:00;41.20;;;26.90;;
61358;SDS011;47228;46.762;23.598;2023-06-22T04:21:28;36.70;;;26.30;;
61358;SDS011;47228;46.762;23.598;2023-06-22T04:23:56;38.20;;;25.80;;
61358;SDS011;47228;46.762;23.598;2023-06-22T04:26:24;36.20;;;25.30;;
61358;SDS011;47228;46.762;23.598;2023-06-22T04:28:52;40.60;;;26.80;;
61358;SDS011;47228;46.762;23.598;2023-06-22T04:31:23;35.10;;;25.50;;
61358;SDS011;47228;46.762;23.598;2023-06-22T04:33:54;39.10;;;26.30;;
61358;SDS011;47228;46.762;23.598;2023-06-22T04:36:22;38.30;;;26.90;;
61358;SDS011;47228;46.762;23.598;2023-06-22T04:38:52;37.00;;;26.40;;
61358;SDS011;47228;46.762;23.598;2023-06-22T04:41:20;37.10;;;25.70;;
61358;SDS011;47228;46.762;23.598;2023-06-22T04:43:51;34.60;;;23.40;;
61358;SDS011;47228;46.762;23.598;2023-06-22T04:46:21;33.50;;;24.10;;
61358;SDS011;47228;46.762;23.598;2023-06-22T04:48:49;36.20;;;24.50;;
61358;SDS011;47228;46.762;23.598;2023-06-22T04:51:17;39.00;;;23.90;;
61358;SDS011;47228;46.762;23.598;2023-06-22T04:53:49;36.40;;;23.80;;
61358;SDS011;47228;46.762;23.598;2023-06-22T04:56:17;36.10;;;24.00;;
61358;SDS011;47228;46.762;23.598;2023-06-22T04:58:45;40.30;;;24.30;;
61358;SDS011;47228;46.762;23.598;2023-06-22T05:01:13;34.30;;;24.20;;
61358;SDS011;47228;46.762;23.598;2023-06-22T05:03:41;37.40;;;24.50;;
61358;SDS011;47228;46.762;23.598;2023-06-22T05:06:09;32.90;;;24.40;;
61358;SDS011;47228;46.762;23.598;2023-06-22T05:08:37;37.60;;;24.40;;
61358;SDS011;47228;46.762;23.598;2023-06-22T05:11:07;46.00;;;26.40;;
61358;SDS011;47228;46.762;23.598;2023-06-22T05:13:35;36.90;;;27.20;;
61358;SDS011;47228;46.762;23.598;2023-06-22T05:16:03;40.20;;;26.50;;
61358;SDS011;47228;46.762;23.598;2023-06-22T05:18:33;40.20;;;27.00;;
61358;SDS011;47228;46.762;23.598;2023-06-22T05:21:02;37.30;;;25.50;;
61358;SDS011;47228;46.762;23.598;2023-06-22T05:23:30;36.40;;;25.90;;
61358;SDS011;47228;46.762;23.598;2023-06-22T05:25:58;41.70;;;25.30;;
61358;SDS011;47228;46.762;23.598;2023-06-22T05:28:26;35.60;;;24.40;;
61358;SDS011;47228;46.762;23.598;2023-06-22T05:30:54;40.00;;;25.40;;
61358;SDS011;47228;46.762;23.598;2023-06-22T05:33:22;38.80;;;25.50;;
61358;SDS011;47228;46.762;23.598;2023-06-22T05:35:50;40.30;;;26.50;;
61358;SDS011;47228;46.762;23.598;2023-06-22T05:38:18;34.20;;;23.80;;
61358;SDS011;47228;46.762;23.598;2023-06-22T05:40:46;40.60;;;26.70;;
61358;SDS011;47228;46.762;23.598;2023-06-22T05:43:14;37.40;;;26.40;;
61358;SDS011;47228;46.762;23.598;2023-06-22T05:45:43;34.10;;;22.90;;
61358;SDS011;47228;46.762;23.598;2023-06-22T05:48:10;32.30;;;21.80;;
61358;SDS011;47228;46.762;23.598;2023-06-22T05:50:38;38.20;;;25.00;;
61358;SDS011;47228;46.762;23.598;2023-06-22T05:53:08;34.00;;;23.10;;
61358;SDS011;47228;46.762;23.598;2023-06-22T05:55:36;38.50;;;23.80;;
61358;SDS011;47228;46.762;23.598;2023-06-22T05:58:04;35.80;;;24.80;;
61358;SDS011;47228;46.762;23.598;2023-06-22T06:00:32;33.80;;;23.50;;
61358;SDS011;47228;46.762;23.598;2023-06-22T06:03:00;32.50;;;23.70;;
61358;SDS011;47228;46.762;23.598;2023-06-22T06:05:31;33.70;;;23.50;;
61358;SDS011;47228;46.762;23.598;2023-06-22T06:08:01;35.00;;;23.20;;
61358;SDS011;47228;46.762;23.598;2023-06-22T06:10:32;33.80;;;22.90;;
61358;SDS011;47228;46.762;23.598;2023-06-22T06:13:01;47.60;;;23.90;;
61358;SDS011;47228;46.762;23.598;2023-06-22T06:15:34;32.20;;;23.70;;
61358;SDS011;47228;46.762;23.598;2023-06-22T06:18:02;31.70;;;23.00;;
61358;SDS011;47228;46.762;23.598;2023-06-22T06:20:32;32.50;;;22.80;;
61358;SDS011;47228;46.762;23.598;2023-06-22T06:23:01;32.80;;;22.60;;
61358;SDS011;47228;46.762;23.598;2023-06-22T06:25:29;34.30;;;23.20;;
61358;SDS011;47228;46.762;23.598;2023-06-22T06:27:57;35.20;;;23.00;;
61358;SDS011;47228;46.762;23.598;2023-06-22T06:30:25;37.40;;;24.90;;
61358;SDS011;47228;46.762;23.598;2023-06-22T06:32:53;31.00;;;22.30;;
61358;SDS011;47228;46.762;23.598;2023-06-22T06:35:21;33.20;;;23.20;;
61358;SDS011;47228;46.762;23.598;2023-06-22T06:37:49;36.30;;;23.40;;
61358;SDS011;47228;46.762;23.598;2023-06-22T06:40:17;34.50;;;22.60;;
61358;SDS011;47228;46.762;23.598;2023-06-22T06:42:46;34.40;;;22.70;;
61358;SDS011;47228;46.762;23.598;2023-06-22T06:45:25;31.60;;;21.70;;
61358;SDS011;47228;46.762;23.598;2023-06-22T06:47:56;37.40;;;23.70;;
61358;SDS011;47228;46.762;23.598;2023-06-22T06:50:24;31.10;;;21.50;;
61358;SDS011;47228;46.762;23.598;2023-06-22T06:52:52;30.30;;;21.60;;
61358;SDS011;47228;46.762;23.598;2023-06-22T06:55:20;29.50;;;20.50;;
61358;SDS011;47228;46.762;23.598;2023-06-22T06:57:48;33.60;;;22.10;;
61358;SDS011;47228;46.762;23.598;2023-06-22T07:00:16;32.50;;;21.30;;
61358;SDS011;47228;46.762;23.598;2023-06-22T07:02:44;26.40;;;18.30;;
61358;SDS011;47228;46.762;23.598;2023-06-22T07:05:15;23.10;;;15.10;;
61358;SDS011;47228;46.762;23.598;2023-06-22T07:07:43;23.60;;;15.40;;
61358;SDS011;47228;46.762;23.598;2023-06-22T07:10:11;26.80;;;16.10;;
61358;SDS011;47228;46.762;23.598;2023-06-22T07:12:39;25.70;;;17.50;;
61358;SDS011;47228;46.762;23.598;2023-06-22T07:15:08;29.20;;;16.40;;
61358;SDS011;47228;46.762;23.598;2023-06-22T07:17:37;22.40;;;16.60;;
61358;SDS011;47228;46.762;23.598;2023-06-22T07:20:07;27.70;;;16.40;;
61358;SDS011;47228;46.762;23.598;2023-06-22T07:25:09;38.10;;;19.70;;
61358;SDS011;47228;46.762;23.598;2023-06-22T07:27:37;35.40;;;20.10;;
61358;SDS011;47228;46.762;23.598;2023-06-22T07:30:10;37.40;;;21.00;;
61358;SDS011;47228;46.762;23.598;2023-06-22T07:32:39;38.00;;;20.30;;
61358;SDS011;47228;46.762;23.598;2023-06-22T07:35:07;43.60;;;22.90;;
61358;SDS011;47228;46.762;23.598;2023-06-22T07:37:36;43.00;;;22.50;;
61358;SDS011;47228;46.762;23.598;2023-06-22T07:40:04;43.90;;;22.50;;
61358;SDS011;47228;46.762;23.598;2023-06-22T07:42:34;41.00;;;21.40;;
61358;SDS011;47228;46.762;23.598;2023-06-22T07:45:02;40.20;;;21.10;;
61358;SDS011;47228;46.762;23.598;2023-06-22T07:47:31;41.90;;;22.30;;
61358;SDS011;47228;46.762;23.598;2023-06-22T07:50:03;41.70;;;20.00;;
61358;SDS011;47228;46.762;23.598;2023-06-22T07:52:31;43.00;;;21.40;;
61358;SDS011;47228;46.762;23.598;2023-06-22T07:55:00;39.40;;;19.90;;
61358;SDS011;47228;46.762;23.598;2023-06-22T07:57:30;35.10;;;19.10;;
61358;SDS011;47228;46.762;23.598;2023-06-22T08:00:03;39.60;;;19.20;;
61358;SDS011;47228;46.762;23.598;2023-06-22T08:02:41;37.20;;;18.20;;
61358;SDS011;47228;46.762;23.598;2023-06-22T08:05:13;30.80;;;18.60;;
61358;SDS011;47228;46.762;23.598;2023-06-22T08:07:49;28.00;;;18.40;;
61358;SDS011;47228;46.762;23.598;2023-06-22T08:10:18;32.20;;;18.30;;
61358;SDS011;47228;46.762;23.598;2023-06-22T08:12:46;32.00;;;19.50;;
61358;SDS011;47228;46.762;23.598;2023-06-22T08:15:14;33.00;;;18.90;;
61358;SDS011;47228;46.762;23.598;2023-06-22T08:17:43;30.00;;;18.40;;
61358;SDS011;47228;46.762;23.598;2023-06-22T08:20:13;31.50;;;18.10;;
61358;SDS011;47228;46.762;23.598;2023-06-22T08:22:41;23.80;;;17.70;;
61358;SDS011;47228;46.762;23.598;2023-06-22T08:25:10;26.60;;;18.10;;
61358;SDS011;47228;46.762;23.598;2023-06-22T08:27:38;26.50;;;17.70;;
61358;SDS011;47228;46.762;23.598;2023-06-22T08:30:06;26.80;;;17.70;;
61358;SDS011;47228;46.762;23.598;2023-06-22T08:32:35;26.10;;;17.90;;
61358;SDS011;47228;46.762;23.598;2023-06-22T08:35:03;26.20;;;16.80;;
61358;SDS011;47228;46.762;23.598;2023-06-22T08:37:33;28.00;;;18.10;;
61358;SDS011;47228;46.762;23.598;2023-06-22T08:40:03;25.60;;;17.70;;
61358;SDS011;47228;46.762;23.598;2023-06-22T08:42:33;25.60;;;17.70;;
61358;SDS011;47228;46.762;23.598;2023-06-22T08:45:01;23.70;;;15.70;;
61358;SDS011;47228;46.762;23.598;2023-06-22T08:47:29;23.80;;;15.40;;
61358;SDS011;47228;46.762;23.598;2023-06-22T08:49:57;16.10;;;10.40;;
61358;SDS011;47228;46.762;23.598;2023-06-22T08:52:25;17.10;;;11.30;;
61358;SDS011;47228;46.762;23.598;2023-06-22T08:54:53;15.00;;;9.00;;
61358;SDS011;47228;46.762;23.598;2023-06-22T08:57:21;13.50;;;9.10;;
61358;SDS011;47228;46.762;23.598;2023-06-22T08:59:49;16.80;;;8.70;;
61358;SDS011;47228;46.762;23.598;2023-06-22T09:02:19;14.30;;;8.10;;
61358;SDS011;47228;46.762;23.598;2023-06-22T09:04:47;13.50;;;7.70;;
61358;SDS011;47228;46.762;23.598;2023-06-22T09:07:16;10.90;;;6.30;;
61358;SDS011;47228;46.762;23.598;2023-06-22T09:09:50;13.00;;;7.00;;
61358;SDS011;47228;46.762;23.598;2023-06-22T09:12:19;14.10;;;8.70;;
61358;SDS011;47228;46.762;23.598;2023-06-22T09:14:50;16.70;;;7.80;;
61358;SDS011;47228;46.762;23.598;2023-06-22T09:17:18;15.30;;;6.50;;
61358;SDS011;47228;46.762;23.598;2023-06-22T09:19:46;10.80;;;6.60;;
61358;SDS011;47228;46.762;23.598;2023-06-22T09:22:15;14.80;;;7.40;;
61358;SDS011;47228;46.762;23.598;2023-06-22T09:24:43;14.30;;;7.50;;
61358;SDS011;47228;46.762;23.598;2023-06-22T09:27:11;13.20;;;7.30;;
61358;SDS011;47228;46.762;23.598;2023-06-22T09:29:39;11.70;;;6.90;;
61358;SDS011;47228;46.762;23.598;2023-06-22T09:32:07;11.90;;;6.80;;
61358;SDS011;47228;46.762;23.598;2023-06-22T09:34:35;13.30;;;6.80;;
61358;SDS011;47228;46.762;23.598;2023-06-22T09:37:03;10.30;;;6.70;;
61358;SDS011;47228;46.762;23.598;2023-06-22T09:39:31;10.90;;;6.60;;
61358;SDS011;47228;46.762;23.598;2023-06-22T09:41:59;12.80;;;7.00;;
61358;SDS011;47228;46.762;23.598;2023-06-22T09:44:28;11.70;;;6.90;;
61358;SDS011;47228;46.762;23.598;2023-06-22T09:46:56;15.70;;;7.40;;
61358;SDS011;47228;46.762;23.598;2023-06-22T09:49:24;15.60;;;8.70;;
61358;SDS011;47228;46.762;23.598;2023-06-22T09:52:12;15.20;;;7.10;;
61358;SDS011;47228;46.762;23.598;2023-06-22T09:54:40;12.50;;;6.90;;
61358;SDS011;47228;46.762;23.598;2023-06-22T09:57:08;12.60;;;7.70;;
61358;SDS011;47228;46.762;23.598;2023-06-22T09:59:36;15.90;;;7.60;;
61358;SDS011;47228;46.762;23.598;2023-06-22T10:02:04;13.30;;;7.30;;
61358;SDS011;47228;46.762;23.598;2023-06-22T10:04:33;15.10;;;7.30;;
61358;SDS011;47228;46.762;23.598;2023-06-22T10:07:05;14.40;;;6.80;;
61358;SDS011;47228;46.762;23.598;2023-06-22T10:09:33;13.30;;;7.60;;
61358;SDS011;47228;46.762;23.598;2023-06-22T10:12:01;10.60;;;7.60;;
61358;SDS011;47228;46.762;23.598;2023-06-22T10:14:28;15.80;;;8.30;;
61358;SDS011;47228;46.762;23.598;2023-06-22T10:16:57;16.70;;;8.70;;
61358;SDS011;47228;46.762;23.598;2023-06-22T10:19:26;15.40;;;8.30;;
61358;SDS011;47228;46.762;23.598;2023-06-22T10:21:54;15.50;;;8.50;;
61358;SDS011;47228;46.762;23.598;2023-06-22T10:24:23;14.50;;;8.40;;
61358;SDS011;47228;46.762;23.598;2023-06-22T10:26:50;16.20;;;8.80;;
61358;SDS011;47228;46.762;23.598;2023-06-22T10:29:18;17.60;;;8.60;;
61358;SDS011;47228;46.762;23.598;2023-06-22T10:31:47;17.60;;;9.40;;
61358;SDS011;47228;46.762;23.598;2023-06-22T10:34:15;15.90;;;8.90;;
61358;SDS011;47228;46.762;23.598;2023-06-22T10:36:43;15.80;;;8.50;;
61358;SDS011;47228;46.762;23.598;2023-06-22T10:39:14;17.80;;;8.70;;
61358;SDS011;47228;46.762;23.598;2023-06-22T10:41:42;16.00;;;9.40;;
61358;SDS011;47228;46.762;23.598;2023-06-22T10:44:10;16.10;;;9.20;;
61358;SDS011;47228;46.762;23.598;2023-06-22T10:46:39;12.80;;;8.50;;
61358;SDS011;47228;46.762;23.598;2023-06-22T10:49:07;15.80;;;8.70;;
61358;SDS011;47228;46.762;23.598;2023-06-22T10:51:35;14.50;;;8.50;;
61358;SDS011;47228;46.762;23.598;2023-06-22T10:54:03;19.10;;;9.10;;
61358;SDS011;47228;46.762;23.598;2023-06-22T10:56:32;16.50;;;9.30;;
61358;SDS011;47228;46.762;23.598;2023-06-22T10:59:01;16.10;;;9.10;;
61358;SDS011;47228;46.762;23.598;2023-06-22T11:01:29;14.10;;;9.00;;
61358;SDS011;47228;46.762;23.598;2023-06-22T11:04:03;16.10;;;8.40;;
61358;SDS011;47228;46.762;23.598;2023-06-22T11:06:32;18.20;;;8.90;;
61358;SDS011;47228;46.762;23.598;2023-06-22T11:09:00;19.10;;;9.10;;
61358;SDS011;47228;46.762;23.598;2023-06-22T11:11:49;14.90;;;8.70;;
61358;SDS011;47228;46.762;23.598;2023-06-22T11:14:18;13.50;;;9.00;;
61358;SDS011;47228;46.762;23.598;2023-06-22T11:16:49;16.40;;;9.40;;
61358;SDS011;47228;46.762;23.598;2023-06-22T11:19:17;18.70;;;9.20;;
61358;SDS011;47228;46.762;23.598;2023-06-22T11:21:45;14.50;;;9.30;;
61358;SDS011;47228;46.762;23.598;2023-06-22T11:24:13;15.60;;;9.20;;
61358;SDS011;47228;46.762;23.598;2023-06-22T11:26:41;14.60;;;8.70;;
61358;SDS011;47228;46.762;23.598;2023-06-22T11:29:09;16.50;;;8.70;;
61358;SDS011;47228;46.762;23.598;2023-06-22T11:31:54;15.10;;;8.40;;
61358;SDS011;47228;46.762;23.598;2023-06-22T11:34:22;18.70;;;7.80;;
61358;SDS011;47228;46.762;23.598;2023-06-22T11:36:50;18.00;;;7.50;;
61358;SDS011;47228;46.762;23.598;2023-06-22T11:39:17;14.90;;;7.70;;
61358;SDS011;47228;46.762;23.598;2023-06-22T11:41:56;15.70;;;7.70;;
61358;SDS011;47228;46.762;23.598;2023-06-22T11:44:24;15.40;;;7.90;;
61358;SDS011;47228;46.762;23.598;2023-06-22T11:46:52;17.10;;;7.70;;
61358;SDS011;47228;46.762;23.598;2023-06-22T11:49:20;18.80;;;7.30;;
61358;SDS011;47228;46.762;23.598;2023-06-22T11:51:48;18.80;;;7.70;;
61358;SDS011;47228;46.762;23.598;2023-06-22T11:54:16;11.20;;;6.50;;
61358;SDS011;47228;46.762;23.598;2023-06-22T11:56:44;18.70;;;7.60;;
61358;SDS011;47228;46.762;23.598;2023-06-22T11:59:12;18.80;;;9.60;;
61358;SDS011;47228;46.762;23.598;2023-06-22T12:01:41;14.30;;;8.10;;
61358;SDS011;47228;46.762;23.598;2023-06-22T12:04:09;14.80;;;7.60;;
61358;SDS011;47228;46.762;23.598;2023-06-22T12:06:38;16.90;;;7.60;;
61358;SDS011;47228;46.762;23.598;2023-06-22T12:09:09;15.40;;;7.00;;
61358;SDS011;47228;46.762;23.598;2023-06-22T12:11:37;20.30;;;9.10;;
61358;SDS011;47228;46.762;23.598;2023-06-22T12:14:05;20.80;;;8.00;;
61358;SDS011;47228;46.762;23.598;2023-06-22T12:16:33;16.10;;;8.70;;
61358;SDS011;47228;46.762;23.598;2023-06-22T12:19:01;13.10;;;6.70;;
61358;SDS011;47228;46.762;23.598;2023-06-22T12:21:29;19.10;;;7.20;;
61358;SDS011;47228;46.762;23.598;2023-06-22T12:23:57;16.10;;;7.20;;
61358;SDS011;47228;46.762;23.598;2023-06-22T12:26:24;18.50;;;6.90;;
61358;SDS011;47228;46.762;23.598;2023-06-22T12:28:52;17.00;;;7.10;;
61358;SDS011;47228;46.762;23.598;2023-06-22T12:31:20;14.30;;;6.90;;
61358;SDS011;47228;46.762;23.598;2023-06-22T12:33:48;13.40;;;7.00;;
61358;SDS011;47228;46.762;23.598;2023-06-22T12:36:16;16.90;;;6.50;;
61358;SDS011;47228;46.762;23.598;2023-06-22T12:38:44;19.40;;;7.60;;
61358;SDS011;47228;46.762;23.598;2023-06-22T12:41:12;15.10;;;7.60;;
61358;SDS011;47228;46.762;23.598;2023-06-22T12:43:40;17.10;;;7.00;;
61358;SDS011;47228;46.762;23.598;2023-06-22T12:46:08;16.90;;;8.10;;
61358;SDS011;47228;46.762;23.598;2023-06-22T12:48:36;16.40;;;8.30;;
61358;SDS011;47228;46.762;23.598;2023-06-22T12:51:09;20.70;;;10.70;;
61358;SDS011;47228;46.762;23.598;2023-06-22T12:53:37;17.80;;;8.50;;
61358;SDS011;47228;46.762;23.598;2023-06-22T12:56:05;16.90;;;8.20;;
61358;SDS011;47228;46.762;23.598;2023-06-22T12:58:33;21.80;;;8.20;;
61358;SDS011;47228;46.762;23.598;2023-06-22T13:01:01;17.10;;;7.80;;
61358;SDS011;47228;46.762;23.598;2023-06-22T13:03:28;14.70;;;7.40;;
61358;SDS011;47228;46.762;23.598;2023-06-22T13:05:56;17.30;;;8.50;;
61358;SDS011;47228;46.762;23.598;2023-06-22T13:08:24;22.90;;;9.30;;
61358;SDS011;47228;46.762;23.598;2023-06-22T13:11:12;15.50;;;7.80;;
61358;SDS011;47228;46.762;23.598;2023-06-22T13:13:44;15.60;;;7.90;;
61358;SDS011;47228;46.762;23.598;2023-06-22T13:16:12;19.80;;;7.60;;
61358;SDS011;47228;46.762;23.598;2023-06-22T13:18:40;12.00;;;7.00;;
61358;SDS011;47228;46.762;23.598;2023-06-22T13:21:08;17.00;;;7.70;;
61358;SDS011;47228;46.762;23.598;2023-06-22T13:23:36;14.10;;;8.20;;
61358;SDS011;47228;46.762;23.598;2023-06-22T13:26:04;20.10;;;8.60;;
61358;SDS011;47228;46.762;23.598;2023-06-22T13:28:32;13.90;;;7.30;;
61358;SDS011;47228;46.762;23.598;2023-06-22T13:31:00;15.10;;;7.80;;
61358;SDS011;47228;46.762;23.598;2023-06-22T13:33:31;15.20;;;7.40;;
61358;SDS011;47228;46.762;23.598;2023-06-22T13:35:59;16.40;;;8.60;;
61358;SDS011;47228;46.762;23.598;2023-06-22T13:38:27;17.20;;;9.00;;
61358;SDS011;47228;46.762;23.598;2023-06-22T13:40:55;14.30;;;7.90;;
61358;SDS011;47228;46.762;23.598;2023-06-22T13:43:26;19.70;;;8.70;;
61358;SDS011;47228;46.762;23.598;2023-06-22T13:45:54;15.40;;;8.40;;
61358;SDS011;47228;46.762;23.598;2023-06-22T13:48:22;17.40;;;8.00;;
61358;SDS011;47228;46.762;23.598;2023-06-22T13:50:51;13.40;;;7.70;;
61358;SDS011;47228;46.762;23.598;2023-06-22T13:53:20;16.50;;;8.10;;
61358;SDS011;47228;46.762;23.598;2023-06-22T13:55:48;17.00;;;7.60;;
61358;SDS011;47228;46.762;23.598;2023-06-22T13:58:16;15.20;;;8.20;;
61358;SDS011;47228;46.762;23.598;2023-06-22T14:00:44;23.50;;;10.80;;
61358;SDS011;47228;46.762;23.598;2023-06-22T14:03:12;15.70;;;7.60;;
61358;SDS011;47228;46.762;23.598;2023-06-22T14:05:43;20.80;;;8.80;;
61358;SDS011;47228;46.762;23.598;2023-06-22T14:08:11;19.00;;;7.80;;
61358;SDS011;47228;46.762;23.598;2023-06-22T14:10:59;15.10;;;7.40;;
61358;SDS011;47228;46.762;23.598;2023-06-22T14:13:28;20.80;;;8.90;;
61358;SDS011;47228;46.762;23.598;2023-06-22T14:15:56;17.10;;;9.10;;
61358;SDS011;47228;46.762;23.598;2023-06-22T14:18:23;19.10;;;8.50;;
61358;SDS011;47228;46.762;23.598;2023-06-22T14:20:51;19.10;;;8.70;;
61358;SDS011;47228;46.762;23.598;2023-06-22T14:23:19;15.20;;;7.60;;
61358;SDS011;47228;46.762;23.598;2023-06-22T14:25:47;19.10;;;8.70;;
61358;SDS011;47228;46.762;23.598;2023-06-22T14:28:15;15.00;;;7.30;;
61358;SDS011;47228;46.762;23.598;2023-06-22T14:30:44;14.30;;;7.30;;
61358;SDS011;47228;46.762;23.598;2023-06-22T14:33:12;17.60;;;7.60;;
61358;SDS011;47228;46.762;23.598;2023-06-22T14:35:40;17.20;;;7.70;;
61358;SDS011;47228;46.762;23.598;2023-06-22T14:38:08;16.80;;;7.80;;